Share

Wallace, NE (69169)

Sisco Fertilizer (KNEELSIE2) Elev 3415 ft | 40.84 °N, 101.40 °W | Change Station

Current weather conditions updated 2 seconds ago

Clear
Clear
64.6 °F
Feels Like 64.6 °F
N
7.0
Wind Variable Wind from SSE
Gusts 10.0 mph
Sunrise 6:58 AM
Sunset 8:29 PM
Moon Waning Gibbous

Tomorrow is forecast to be Cooler than today.

Pressure 29.90 in
Visibility 10.0 miles
Clouds Clear
Dew Point 47 °F
Humidity 53%
Rainfall 0.00 in
Snow Depth Not available.
UV 0 out of 16
Pollen 9.90 out of 12
Air Quality Not available.
Flu Activity Sporadic
METAR KLBF 210153Z AUTO 11003KT 10SM CLR 15/08 A2991 RMK AO2 SLP123 T01500083

More Conditions Fewer Conditions

Pressure 29.90 in
Visibility 10.0 miles
Clouds Clear
Dew Point 47 °F
Humidity 53%
Rainfall 0.00 in
Snow Depth Not available.
UV 0 out of 16
Pollen 9.90 out of 12
Air Quality Not available.
Flu Activity Sporadic
METAR KLBF 210153Z AUTO 11003KT 10SM CLR 15/08 A2991 RMK AO2 SLP123 T01500083

More Conditions Fewer Conditions

10-Day Weather Forecast

Almanac

Astronomy

Apr. 20, 2014 Rise Set
Actual Time 6:58 AM CDT 8:29 PM CDT
Civil Twilight 6:29 AM CDT 8:58 PM CDT
Nautical Twilight 5:54 AM CDT 9:33 PM CDT
Astronomical Twilight 5:17 AM CDT 10:10 PM CDT
Moon 1:11 AM CDT (4/20) 11:19 AM CDT (4/20)
Length of Visible Light 14h 29m
Length of Day
13h 31m
Tomorrow will be 2m 30s longer.
Waning Gibbous, 64% of the Moon is Illuminated
Today
Waning Gibbous
Apr 22
Last Quarter
Apr 29
New
May 6
First Quarter
May 14
Full

Today's Extremes

State Highs State Lows

Community

  • Sun Pillar and Geese
    Sun Pillar and Geese
  • Easter Morning Fog
    Easter Morning Fog
  • Easter Dance
    Easter Dance
  • spring skiing mount Baker WA
    spring skiing mount Baker WA
  • Morning Sun
    Morning Sun

WunderPhotos

Upload Photos

1,703,518 photos uploaded!

WunderBlogs® & News

Nearby

Snow Depth

Station Depth Elevation
No new snow has been reported.

Coastal Water Temperatures

Place Temperature
No Stations Reporting

Earthquake Activity

City Distance Mag. Time & Date
No recent earthquake activity has been reported nearby.
Minimum magnitude displayed is 2.5.

Nearby Weather Stations

Station Location Temp. Heat Index Dew Point Humidity Wind Precip. Elev Updated Type
Sisco Fertilizer, Elsie, NE 64.6 °F - 47 °F 53% SSE  at  7.0 mph 0.00 in / hr 3415 ft 8:12 PM MDT Rapid Fire
MesoWest PAXTN1 , Paxton, NE 76 °F 74 °F - - North  at  - 0.00 in / hr 3062 ft 7:00 PM MDT MADIS
HAYES CENTER, HAYES CENTER, NE 62.2 °F - 51 °F 68% SE  at  8.0 mph 0.00 in / hr 3035 ft 8:59 PM CDT Normal

Show More Stations Show Fewer Stations

What do you think?

We're not finished. Please let us know what you like, what you don't like, and what you are still missing.